Terminal Aerodrome Forecast
Issued by NWS Missoula, MT

Home | Current Version | Previous Version | Text Only | Print | Product List | Glossary On
Versions: 1 2 3 4 5 6 7 8 9 10 11 12 13 14
000
FTUS45 KMSO 051733
TAFBTM
TAF
KBTM 051733Z 0518/0618 02010KT P6SM BKN025
     FM052000 08008KT P6SM VCSH BKN050
     FM060300 05008KT P6SM SCT050
     FM060900 VRB03KT P6SM BKN030=

USA.gov is the U.S. government's official web portal to all federal, state and local government web resources and services.